sensor_id;sensor_type;location;lat;lon;timestamp;P1;durP1;ratioP1;P2;durP2;ratioP2
79330;SDS011;68797;49.782;19.054;2023-03-29T00:01:04;12.80;;;5.18;;
79330;SDS011;68797;49.782;19.054;2023-03-29T00:03:32;10.13;;;4.80;;
79330;SDS011;68797;49.782;19.054;2023-03-29T00:06:00;5.45;;;3.83;;
79330;SDS011;68797;49.782;19.054;2023-03-29T00:08:31;7.82;;;2.92;;
79330;SDS011;68797;49.782;19.054;2023-03-29T00:11:06;7.07;;;3.40;;
79330;SDS011;68797;49.782;19.054;2023-03-29T00:13:34;4.40;;;2.25;;
79330;SDS011;68797;49.782;19.054;2023-03-29T00:16:01;5.72;;;3.03;;
79330;SDS011;68797;49.782;19.054;2023-03-29T00:18:28;6.70;;;3.58;;
79330;SDS011;68797;49.782;19.054;2023-03-29T00:20:56;7.32;;;3.33;;
79330;SDS011;68797;49.782;19.054;2023-03-29T00:23:29;5.88;;;2.92;;
79330;SDS011;68797;49.782;19.054;2023-03-29T00:25:58;10.45;;;2.78;;
79330;SDS011;68797;49.782;19.054;2023-03-29T00:28:25;8.88;;;2.83;;
79330;SDS011;68797;49.782;19.054;2023-03-29T00:31:02;5.43;;;3.08;;
79330;SDS011;68797;49.782;19.054;2023-03-29T00:33:35;5.03;;;2.67;;
79330;SDS011;68797;49.782;19.054;2023-03-29T00:36:04;3.95;;;2.33;;
79330;SDS011;68797;49.782;19.054;2023-03-29T00:38:37;2.55;;;1.75;;
79330;SDS011;68797;49.782;19.054;2023-03-29T00:41:05;4.65;;;2.45;;
79330;SDS011;68797;49.782;19.054;2023-03-29T00:43:56;5.90;;;2.03;;
79330;SDS011;68797;49.782;19.054;2023-03-29T00:46:25;4.57;;;2.17;;
79330;SDS011;68797;49.782;19.054;2023-03-29T00:48:54;6.75;;;3.05;;
79330;SDS011;68797;49.782;19.054;2023-03-29T00:51:26;4.90;;;3.00;;
79330;SDS011;68797;49.782;19.054;2023-03-29T00:54:00;4.97;;;2.88;;
79330;SDS011;68797;49.782;19.054;2023-03-29T00:56:32;4.43;;;2.50;;
79330;SDS011;68797;49.782;19.054;2023-03-29T00:59:03;3.65;;;2.45;;
79330;SDS011;68797;49.782;19.054;2023-03-29T01:02:04;8.20;;;3.58;;
79330;SDS011;68797;49.782;19.054;2023-03-29T01:07:19;3.85;;;1.70;;
79330;SDS011;68797;49.782;19.054;2023-03-29T01:10:26;4.32;;;2.15;;
79330;SDS011;68797;49.782;19.054;2023-03-29T01:13:19;2.72;;;1.75;;
79330;SDS011;68797;49.782;19.054;2023-03-29T01:16:09;4.53;;;2.67;;
79330;SDS011;68797;49.782;19.054;2023-03-29T01:18:40;9.20;;;2.85;;
79330;SDS011;68797;49.782;19.054;2023-03-29T01:24:36;15.10;;;6.15;;
79330;SDS011;68797;49.782;19.054;2023-03-29T01:30:21;18.20;;;10.10;;
79330;SDS011;68797;49.782;19.054;2023-03-29T01:33:13;20.38;;;8.35;;
79330;SDS011;68797;49.782;19.054;2023-03-29T01:35:56;18.33;;;7.70;;
79330;SDS011;68797;49.782;19.054;2023-03-29T01:38:33;21.70;;;8.80;;
79330;SDS011;68797;49.782;19.054;2023-03-29T01:41:09;26.75;;;10.30;;
79330;SDS011;68797;49.782;19.054;2023-03-29T01:43:44;21.50;;;9.77;;
79330;SDS011;68797;49.782;19.054;2023-03-29T01:46:41;21.50;;;10.43;;
79330;SDS011;68797;49.782;19.054;2023-03-29T01:49:31;20.63;;;9.85;;
79330;SDS011;68797;49.782;19.054;2023-03-29T01:52:16;26.80;;;9.98;;
79330;SDS011;68797;49.782;19.054;2023-03-29T01:54:52;21.15;;;10.43;;
79330;SDS011;68797;49.782;19.054;2023-03-29T01:57:28;26.02;;;11.40;;
79330;SDS011;68797;49.782;19.054;2023-03-29T02:00:03;31.67;;;10.45;;
79330;SDS011;68797;49.782;19.054;2023-03-29T02:02:38;22.23;;;10.80;;
79330;SDS011;68797;49.782;19.054;2023-03-29T02:05:10;22.30;;;9.90;;
79330;SDS011;68797;49.782;19.054;2023-03-29T02:07:40;21.67;;;10.13;;
79330;SDS011;68797;49.782;19.054;2023-03-29T02:10:13;12.80;;;8.25;;
79330;SDS011;68797;49.782;19.054;2023-03-29T02:12:42;20.05;;;9.57;;
79330;SDS011;68797;49.782;19.054;2023-03-29T02:15:12;21.13;;;9.45;;
79330;SDS011;68797;49.782;19.054;2023-03-29T02:17:41;19.42;;;8.57;;
79330;SDS011;68797;49.782;19.054;2023-03-29T02:20:13;16.63;;;8.00;;
79330;SDS011;68797;49.782;19.054;2023-03-29T02:25:40;15.57;;;7.82;;
79330;SDS011;68797;49.782;19.054;2023-03-29T02:28:08;22.67;;;9.48;;
79330;SDS011;68797;49.782;19.054;2023-03-29T02:33:19;17.02;;;8.57;;
79330;SDS011;68797;49.782;19.054;2023-03-29T02:36:16;26.70;;;10.68;;
79330;SDS011;68797;49.782;19.054;2023-03-29T02:38:47;18.45;;;11.02;;
79330;SDS011;68797;49.782;19.054;2023-03-29T02:41:14;26.58;;;11.20;;
79330;SDS011;68797;49.782;19.054;2023-03-29T02:43:46;18.23;;;9.65;;
79330;SDS011;68797;49.782;19.054;2023-03-29T02:46:18;26.38;;;10.38;;
79330;SDS011;68797;49.782;19.054;2023-03-29T02:48:48;16.45;;;8.95;;
79330;SDS011;68797;49.782;19.054;2023-03-29T02:51:25;21.30;;;9.52;;
79330;SDS011;68797;49.782;19.054;2023-03-29T02:56:55;15.20;;;7.13;;
79330;SDS011;68797;49.782;19.054;2023-03-29T02:59:25;24.77;;;10.73;;
79330;SDS011;68797;49.782;19.054;2023-03-29T03:01:55;22.60;;;9.25;;
79330;SDS011;68797;49.782;19.054;2023-03-29T03:04:26;19.42;;;9.27;;
79330;SDS011;68797;49.782;19.054;2023-03-29T03:06:55;23.60;;;9.23;;
79330;SDS011;68797;49.782;19.054;2023-03-29T03:09:22;17.23;;;8.45;;
79330;SDS011;68797;49.782;19.054;2023-03-29T03:11:54;16.55;;;6.90;;
79330;SDS011;68797;49.782;19.054;2023-03-29T03:14:21;18.92;;;8.70;;
79330;SDS011;68797;49.782;19.054;2023-03-29T03:16:49;18.55;;;7.72;;
79330;SDS011;68797;49.782;19.054;2023-03-29T03:19:16;15.63;;;8.48;;
79330;SDS011;68797;49.782;19.054;2023-03-29T03:21:46;15.80;;;8.93;;
79330;SDS011;68797;49.782;19.054;2023-03-29T03:24:15;11.25;;;6.38;;
79330;SDS011;68797;49.782;19.054;2023-03-29T03:26:51;15.77;;;7.28;;
79330;SDS011;68797;49.782;19.054;2023-03-29T03:29:19;18.45;;;8.23;;
79330;SDS011;68797;49.782;19.054;2023-03-29T03:32:19;14.48;;;6.70;;
79330;SDS011;68797;49.782;19.054;2023-03-29T03:35:23;14.60;;;7.97;;
79330;SDS011;68797;49.782;19.054;2023-03-29T03:37:51;17.10;;;6.90;;
79330;SDS011;68797;49.782;19.054;2023-03-29T03:40:19;17.85;;;7.95;;
79330;SDS011;68797;49.782;19.054;2023-03-29T03:42:56;18.80;;;6.00;;
79330;SDS011;68797;49.782;19.054;2023-03-29T03:45:23;11.55;;;6.43;;
79330;SDS011;68797;49.782;19.054;2023-03-29T03:47:56;13.75;;;5.95;;
79330;SDS011;68797;49.782;19.054;2023-03-29T03:50:33;12.88;;;6.20;;
79330;SDS011;68797;49.782;19.054;2023-03-29T03:53:02;14.80;;;5.82;;
79330;SDS011;68797;49.782;19.054;2023-03-29T03:55:49;8.77;;;4.47;;
79330;SDS011;68797;49.782;19.054;2023-03-29T03:58:23;13.75;;;6.60;;
79330;SDS011;68797;49.782;19.054;2023-03-29T04:00:51;12.43;;;6.93;;
79330;SDS011;68797;49.782;19.054;2023-03-29T04:03:35;19.15;;;5.75;;
79330;SDS011;68797;49.782;19.054;2023-03-29T04:06:10;15.23;;;7.50;;
79330;SDS011;68797;49.782;19.054;2023-03-29T04:09:06;12.13;;;5.85;;
79330;SDS011;68797;49.782;19.054;2023-03-29T04:11:39;11.32;;;5.88;;
79330;SDS011;68797;49.782;19.054;2023-03-29T04:14:06;12.88;;;5.68;;
79330;SDS011;68797;49.782;19.054;2023-03-29T04:16:56;15.75;;;7.07;;
79330;SDS011;68797;49.782;19.054;2023-03-29T04:19:45;22.38;;;8.57;;
79330;SDS011;68797;49.782;19.054;2023-03-29T04:22:11;17.27;;;6.60;;
79330;SDS011;68797;49.782;19.054;2023-03-29T04:24:38;12.88;;;7.32;;
79330;SDS011;68797;49.782;19.054;2023-03-29T04:27:23;19.38;;;7.82;;
79330;SDS011;68797;49.782;19.054;2023-03-29T04:29:51;13.90;;;8.02;;
79330;SDS011;68797;49.782;19.054;2023-03-29T04:32:26;14.38;;;7.28;;
79330;SDS011;68797;49.782;19.054;2023-03-29T04:35:01;9.15;;;6.35;;
79330;SDS011;68797;49.782;19.054;2023-03-29T04:37:36;17.55;;;7.40;;
79330;SDS011;68797;49.782;19.054;2023-03-29T04:40:12;16.25;;;6.78;;
79330;SDS011;68797;49.782;19.054;2023-03-29T04:42:55;19.65;;;8.93;;
79330;SDS011;68797;49.782;19.054;2023-03-29T04:45:32;16.42;;;7.78;;
79330;SDS011;68797;49.782;19.054;2023-03-29T04:48:13;17.40;;;6.75;;
79330;SDS011;68797;49.782;19.054;2023-03-29T04:50:45;15.73;;;8.38;;
79330;SDS011;68797;49.782;19.054;2023-03-29T04:53:13;16.65;;;7.78;;
79330;SDS011;68797;49.782;19.054;2023-03-29T04:55:44;21.00;;;9.00;;
79330;SDS011;68797;49.782;19.054;2023-03-29T04:58:17;14.07;;;8.43;;
79330;SDS011;68797;49.782;19.054;2023-03-29T05:00:45;12.52;;;7.40;;
79330;SDS011;68797;49.782;19.054;2023-03-29T05:03:36;16.27;;;8.75;;
79330;SDS011;68797;49.782;19.054;2023-03-29T05:06:20;13.57;;;7.50;;
79330;SDS011;68797;49.782;19.054;2023-03-29T05:08:47;19.77;;;7.60;;
79330;SDS011;68797;49.782;19.054;2023-03-29T05:11:23;12.55;;;7.40;;
79330;SDS011;68797;49.782;19.054;2023-03-29T05:13:53;17.60;;;7.68;;
79330;SDS011;68797;49.782;19.054;2023-03-29T05:16:30;15.15;;;8.43;;
79330;SDS011;68797;49.782;19.054;2023-03-29T05:19:20;14.98;;;6.85;;
79330;SDS011;68797;49.782;19.054;2023-03-29T05:21:53;15.23;;;8.57;;
79330;SDS011;68797;49.782;19.054;2023-03-29T05:24:22;15.73;;;7.88;;
79330;SDS011;68797;49.782;19.054;2023-03-29T05:26:59;11.63;;;6.80;;
79330;SDS011;68797;49.782;19.054;2023-03-29T05:29:30;15.95;;;7.28;;
79330;SDS011;68797;49.782;19.054;2023-03-29T05:32:18;14.20;;;6.80;;
79330;SDS011;68797;49.782;19.054;2023-03-29T05:34:47;16.00;;;8.15;;
79330;SDS011;68797;49.782;19.054;2023-03-29T05:37:14;17.50;;;7.32;;
79330;SDS011;68797;49.782;19.054;2023-03-29T05:40:03;16.02;;;8.73;;
79330;SDS011;68797;49.782;19.054;2023-03-29T05:42:41;18.00;;;8.10;;
79330;SDS011;68797;49.782;19.054;2023-03-29T05:45:11;22.17;;;8.73;;
79330;SDS011;68797;49.782;19.054;2023-03-29T05:47:40;12.10;;;6.72;;
79330;SDS011;68797;49.782;19.054;2023-03-29T05:50:10;15.35;;;6.93;;
79330;SDS011;68797;49.782;19.054;2023-03-29T05:52:39;15.88;;;6.85;;
79330;SDS011;68797;49.782;19.054;2023-03-29T05:55:06;19.52;;;8.13;;
79330;SDS011;68797;49.782;19.054;2023-03-29T05:57:38;17.20;;;7.85;;
79330;SDS011;68797;49.782;19.054;2023-03-29T06:00:06;13.57;;;7.00;;
79330;SDS011;68797;49.782;19.054;2023-03-29T06:03:01;18.42;;;6.80;;
79330;SDS011;68797;49.782;19.054;2023-03-29T06:05:39;13.02;;;5.95;;
79330;SDS011;68797;49.782;19.054;2023-03-29T06:08:07;12.25;;;6.55;;
79330;SDS011;68797;49.782;19.054;2023-03-29T06:10:57;19.90;;;6.40;;
79330;SDS011;68797;49.782;19.054;2023-03-29T06:13:46;13.05;;;7.03;;
79330;SDS011;68797;49.782;19.054;2023-03-29T06:16:12;12.63;;;7.50;;
79330;SDS011;68797;49.782;19.054;2023-03-29T06:18:59;16.15;;;7.65;;
79330;SDS011;68797;49.782;19.054;2023-03-29T06:21:45;13.77;;;7.45;;
79330;SDS011;68797;49.782;19.054;2023-03-29T06:24:20;14.52;;;7.95;;
79330;SDS011;68797;49.782;19.054;2023-03-29T06:26:54;12.55;;;6.85;;
79330;SDS011;68797;49.782;19.054;2023-03-29T06:29:24;19.00;;;7.60;;
79330;SDS011;68797;49.782;19.054;2023-03-29T06:31:52;11.38;;;6.53;;
79330;SDS011;68797;49.782;19.054;2023-03-29T06:34:55;14.75;;;7.45;;
79330;SDS011;68797;49.782;19.054;2023-03-29T06:37:30;15.60;;;6.68;;
79330;SDS011;68797;49.782;19.054;2023-03-29T06:40:09;11.82;;;6.60;;
79330;SDS011;68797;49.782;19.054;2023-03-29T06:42:44;10.25;;;5.78;;
79330;SDS011;68797;49.782;19.054;2023-03-29T06:45:32;13.02;;;6.30;;
79330;SDS011;68797;49.782;19.054;2023-03-29T06:48:06;12.50;;;6.47;;
79330;SDS011;68797;49.782;19.054;2023-03-29T06:50:34;14.30;;;7.05;;
79330;SDS011;68797;49.782;19.054;2023-03-29T06:53:30;13.05;;;7.03;;
79330;SDS011;68797;49.782;19.054;2023-03-29T06:56:00;11.40;;;6.55;;
79330;SDS011;68797;49.782;19.054;2023-03-29T06:58:42;14.27;;;6.72;;
79330;SDS011;68797;49.782;19.054;2023-03-29T07:01:29;16.15;;;8.13;;
79330;SDS011;68797;49.782;19.054;2023-03-29T07:04:05;13.52;;;7.55;;
79330;SDS011;68797;49.782;19.054;2023-03-29T07:06:54;17.95;;;8.30;;
79330;SDS011;68797;49.782;19.054;2023-03-29T07:09:29;16.83;;;8.73;;
79330;SDS011;68797;49.782;19.054;2023-03-29T07:12:29;15.90;;;7.75;;
79330;SDS011;68797;49.782;19.054;2023-03-29T07:15:00;19.33;;;8.50;;
79330;SDS011;68797;49.782;19.054;2023-03-29T07:17:47;18.15;;;9.27;;
79330;SDS011;68797;49.782;19.054;2023-03-29T07:20:15;16.05;;;9.32;;
79330;SDS011;68797;49.782;19.054;2023-03-29T07:22:59;16.65;;;8.43;;
79330;SDS011;68797;49.782;19.054;2023-03-29T07:25:26;21.92;;;10.05;;
79330;SDS011;68797;49.782;19.054;2023-03-29T07:27:59;22.10;;;9.27;;
79330;SDS011;68797;49.782;19.054;2023-03-29T07:30:28;20.45;;;10.13;;
79330;SDS011;68797;49.782;19.054;2023-03-29T07:33:08;20.85;;;10.30;;
79330;SDS011;68797;49.782;19.054;2023-03-29T07:35:57;17.17;;;9.23;;
79330;SDS011;68797;49.782;19.054;2023-03-29T07:38:36;16.83;;;8.50;;
79330;SDS011;68797;49.782;19.054;2023-03-29T07:41:11;15.52;;;8.40;;
79330;SDS011;68797;49.782;19.054;2023-03-29T07:43:47;21.42;;;9.73;;
79330;SDS011;68797;49.782;19.054;2023-03-29T07:46:21;19.63;;;9.23;;
79330;SDS011;68797;49.782;19.054;2023-03-29T07:48:49;20.65;;;9.30;;
79330;SDS011;68797;49.782;19.054;2023-03-29T07:51:16;19.83;;;8.32;;
79330;SDS011;68797;49.782;19.054;2023-03-29T07:54:01;12.15;;;7.75;;
79330;SDS011;68797;49.782;19.054;2023-03-29T07:56:58;17.70;;;7.47;;
79330;SDS011;68797;49.782;19.054;2023-03-29T07:59:45;15.60;;;7.15;;
79330;SDS011;68797;49.782;19.054;2023-03-29T08:02:18;15.90;;;8.18;;
79330;SDS011;68797;49.782;19.054;2023-03-29T08:05:08;15.27;;;8.10;;
79330;SDS011;68797;49.782;19.054;2023-03-29T08:08:06;21.70;;;9.82;;
79330;SDS011;68797;49.782;19.054;2023-03-29T08:10:58;18.83;;;10.18;;
79330;SDS011;68797;49.782;19.054;2023-03-29T08:13:42;20.25;;;10.10;;
79330;SDS011;68797;49.782;19.054;2023-03-29T08:16:28;19.00;;;10.05;;
79330;SDS011;68797;49.782;19.054;2023-03-29T08:19:04;20.77;;;10.40;;
79330;SDS011;68797;49.782;19.054;2023-03-29T08:22:07;22.15;;;10.85;;
79330;SDS011;68797;49.782;19.054;2023-03-29T08:24:58;26.35;;;10.75;;
79330;SDS011;68797;49.782;19.054;2023-03-29T08:27:49;26.65;;;10.60;;
79330;SDS011;68797;49.782;19.054;2023-03-29T08:30:36;23.92;;;11.77;;
79330;SDS011;68797;49.782;19.054;2023-03-29T08:33:25;23.85;;;11.88;;
79330;SDS011;68797;49.782;19.054;2023-03-29T08:36:12;25.00;;;11.32;;
79330;SDS011;68797;49.782;19.054;2023-03-29T08:38:54;22.52;;;11.77;;
79330;SDS011;68797;49.782;19.054;2023-03-29T08:41:35;25.45;;;12.38;;
79330;SDS011;68797;49.782;19.054;2023-03-29T08:47:09;19.85;;;9.25;;
79330;SDS011;68797;49.782;19.054;2023-03-29T08:49:45;19.45;;;10.70;;
79330;SDS011;68797;49.782;19.054;2023-03-29T08:52:23;19.50;;;10.48;;
79330;SDS011;68797;49.782;19.054;2023-03-29T08:58:44;22.10;;;10.18;;
79330;SDS011;68797;49.782;19.054;2023-03-29T09:01:17;22.02;;;11.13;;
79330;SDS011;68797;49.782;19.054;2023-03-29T09:04:02;23.98;;;12.05;;
79330;SDS011;68797;49.782;19.054;2023-03-29T09:06:57;27.33;;;12.77;;
79330;SDS011;68797;49.782;19.054;2023-03-29T09:09:37;26.83;;;12.52;;
79330;SDS011;68797;49.782;19.054;2023-03-29T09:12:41;29.27;;;14.15;;
79330;SDS011;68797;49.782;19.054;2023-03-29T09:15:33;21.17;;;12.35;;
79330;SDS011;68797;49.782;19.054;2023-03-29T09:27:48;29.38;;;11.93;;
79330;SDS011;68797;49.782;19.054;2023-03-29T09:33:52;24.35;;;11.10;;
79330;SDS011;68797;49.782;19.054;2023-03-29T09:36:51;21.98;;;10.27;;
79330;SDS011;68797;49.782;19.054;2023-03-29T09:39:25;22.23;;;11.00;;
79330;SDS011;68797;49.782;19.054;2023-03-29T09:44:50;17.75;;;8.40;;
79330;SDS011;68797;49.782;19.054;2023-03-29T09:47:34;18.23;;;9.10;;
79330;SDS011;68797;49.782;19.054;2023-03-29T09:50:38;13.50;;;8.70;;
79330;SDS011;68797;49.782;19.054;2023-03-29T09:53:31;16.67;;;8.48;;
79330;SDS011;68797;49.782;19.054;2023-03-29T09:56:16;20.85;;;9.32;;
79330;SDS011;68797;49.782;19.054;2023-03-29T09:58:58;16.63;;;9.15;;
79330;SDS011;68797;49.782;19.054;2023-03-29T10:01:25;17.98;;;9.20;;
79330;SDS011;68797;49.782;19.054;2023-03-29T10:04:24;14.95;;;7.05;;
79330;SDS011;68797;49.782;19.054;2023-03-29T10:06:56;17.70;;;6.72;;
79330;SDS011;68797;49.782;19.054;2023-03-29T10:09:29;13.68;;;7.80;;
79330;SDS011;68797;49.782;19.054;2023-03-29T10:12:21;12.55;;;6.32;;
79330;SDS011;68797;49.782;19.054;2023-03-29T10:14:48;12.43;;;6.50;;
79330;SDS011;68797;49.782;19.054;2023-03-29T10:17:25;11.23;;;6.13;;
79330;SDS011;68797;49.782;19.054;2023-03-29T10:19:56;11.68;;;5.65;;
79330;SDS011;68797;49.782;19.054;2023-03-29T10:22:28;10.18;;;6.13;;
79330;SDS011;68797;49.782;19.054;2023-03-29T10:29:55;11.93;;;5.18;;
79330;SDS011;68797;49.782;19.054;2023-03-29T10:32:35;13.38;;;5.63;;
79330;SDS011;68797;49.782;19.054;2023-03-29T10:37:57;10.95;;;5.20;;
79330;SDS011;68797;49.782;19.054;2023-03-29T10:40:38;11.95;;;3.97;;
79330;SDS011;68797;49.782;19.054;2023-03-29T10:43:32;4.55;;;2.10;;
79330;SDS011;68797;49.782;19.054;2023-03-29T10:46:10;4.75;;;2.40;;
79330;SDS011;68797;49.782;19.054;2023-03-29T10:48:59;2.63;;;1.83;;
79330;SDS011;68797;49.782;19.054;2023-03-29T10:51:43;3.45;;;2.03;;
79330;SDS011;68797;49.782;19.054;2023-03-29T10:54:13;3.95;;;2.63;;
79330;SDS011;68797;49.782;19.054;2023-03-29T10:57:14;4.75;;;2.40;;
79330;SDS011;68797;49.782;19.054;2023-03-29T11:05:46;3.75;;;2.42;;
79330;SDS011;68797;49.782;19.054;2023-03-29T11:17:48;5.15;;;2.50;;
79330;SDS011;68797;49.782;19.054;2023-03-29T11:21:23;5.15;;;2.20;;
79330;SDS011;68797;49.782;19.054;2023-03-29T11:29:26;4.53;;;2.65;;
79330;SDS011;68797;49.782;19.054;2023-03-29T11:32:46;5.00;;;2.50;;
79330;SDS011;68797;49.782;19.054;2023-03-29T11:40:39;5.82;;;2.90;;
79330;SDS011;68797;49.782;19.054;2023-03-29T11:43:38;4.47;;;2.78;;
79330;SDS011;68797;49.782;19.054;2023-03-29T11:49:23;6.43;;;2.90;;
79330;SDS011;68797;49.782;19.054;2023-03-29T11:52:18;5.28;;;2.60;;
79330;SDS011;68797;49.782;19.054;2023-03-29T11:57:51;3.72;;;2.47;;
79330;SDS011;68797;49.782;19.054;2023-03-29T12:03:10;5.68;;;2.95;;
79330;SDS011;68797;49.782;19.054;2023-03-29T12:06:00;4.10;;;2.47;;
79330;SDS011;68797;49.782;19.054;2023-03-29T12:08:45;4.80;;;2.60;;
79330;SDS011;68797;49.782;19.054;2023-03-29T12:11:27;5.13;;;2.53;;
79330;SDS011;68797;49.782;19.054;2023-03-29T12:17:19;5.40;;;2.47;;
79330;SDS011;68797;49.782;19.054;2023-03-29T12:22:58;3.50;;;2.42;;
79330;SDS011;68797;49.782;19.054;2023-03-29T12:25:29;5.35;;;3.00;;
79330;SDS011;68797;49.782;19.054;2023-03-29T12:31:12;6.70;;;3.28;;
79330;SDS011;68797;49.782;19.054;2023-03-29T12:40:26;6.00;;;2.83;;
79330;SDS011;68797;49.782;19.054;2023-03-29T12:43:36;5.75;;;2.97;;
79330;SDS011;68797;49.782;19.054;2023-03-29T12:46:19;6.38;;;2.92;;
79330;SDS011;68797;49.782;19.054;2023-03-29T12:48:59;6.15;;;3.20;;
79330;SDS011;68797;49.782;19.054;2023-03-29T12:51:38;6.55;;;2.90;;
79330;SDS011;68797;49.782;19.054;2023-03-29T12:54:11;6.03;;;3.05;;
79330;SDS011;68797;49.782;19.054;2023-03-29T12:56:53;6.45;;;4.40;;
79330;SDS011;68797;49.782;19.054;2023-03-29T12:59:44;5.53;;;2.67;;
79330;SDS011;68797;49.782;19.054;2023-03-29T13:04:54;4.32;;;2.17;;
79330;SDS011;68797;49.782;19.054;2023-03-29T13:10:25;6.72;;;3.22;;
79330;SDS011;68797;49.782;19.054;2023-03-29T13:13:46;7.10;;;3.38;;
79330;SDS011;68797;49.782;19.054;2023-03-29T13:16:18;5.63;;;3.95;;
79330;SDS011;68797;49.782;19.054;2023-03-29T13:31:42;9.38;;;4.10;;
79330;SDS011;68797;49.782;19.054;2023-03-29T13:48:28;10.20;;;3.92;;
79330;SDS011;68797;49.782;19.054;2023-03-29T13:50:59;6.53;;;4.03;;
79330;SDS011;68797;49.782;19.054;2023-03-29T13:53:53;7.70;;;3.70;;
79330;SDS011;68797;49.782;19.054;2023-03-29T13:56:30;7.45;;;4.30;;
79330;SDS011;68797;49.782;19.054;2023-03-29T13:59:19;7.90;;;3.63;;
79330;SDS011;68797;49.782;19.054;2023-03-29T14:01:57;9.48;;;4.30;;
79330;SDS011;68797;49.782;19.054;2023-03-29T14:04:36;7.72;;;3.80;;
79330;SDS011;68797;49.782;19.054;2023-03-29T14:07:14;9.63;;;3.65;;
79330;SDS011;68797;49.782;19.054;2023-03-29T14:09:57;8.05;;;4.35;;
79330;SDS011;68797;49.782;19.054;2023-03-29T14:12:32;9.20;;;3.72;;
79330;SDS011;68797;49.782;19.054;2023-03-29T14:15:24;8.13;;;4.07;;
79330;SDS011;68797;49.782;19.054;2023-03-29T14:17:54;5.63;;;2.67;;
79330;SDS011;68797;49.782;19.054;2023-03-29T14:20:24;8.43;;;3.60;;
79330;SDS011;68797;49.782;19.054;2023-03-29T14:22:51;5.80;;;2.83;;
79330;SDS011;68797;49.782;19.054;2023-03-29T14:25:21;7.38;;;3.75;;
79330;SDS011;68797;49.782;19.054;2023-03-29T14:27:51;7.90;;;4.20;;
79330;SDS011;68797;49.782;19.054;2023-03-29T14:30:23;4.93;;;4.18;;
79330;SDS011;68797;49.782;19.054;2023-03-29T14:32:53;5.85;;;3.38;;
79330;SDS011;68797;49.782;19.054;2023-03-29T14:35:26;7.03;;;3.33;;
79330;SDS011;68797;49.782;19.054;2023-03-29T14:37:58;6.07;;;3.55;;
79330;SDS011;68797;49.782;19.054;2023-03-29T14:40:31;7.88;;;3.90;;
79330;SDS011;68797;49.782;19.054;2023-03-29T14:43:01;6.60;;;2.95;;
79330;SDS011;68797;49.782;19.054;2023-03-29T14:45:32;6.93;;;3.17;;
79330;SDS011;68797;49.782;19.054;2023-03-29T14:48:00;5.95;;;3.17;;
79330;SDS011;68797;49.782;19.054;2023-03-29T14:50:34;6.80;;;4.10;;
79330;SDS011;68797;49.782;19.054;2023-03-29T14:53:01;10.38;;;3.97;;
79330;SDS011;68797;49.782;19.054;2023-03-29T14:55:29;7.07;;;3.28;;
79330;SDS011;68797;49.782;19.054;2023-03-29T14:58:01;7.38;;;3.63;;
79330;SDS011;68797;49.782;19.054;2023-03-29T15:00:36;6.68;;;3.10;;
79330;SDS011;68797;49.782;19.054;2023-03-29T15:03:13;9.55;;;3.65;;
79330;SDS011;68797;49.782;19.054;2023-03-29T15:05:41;6.20;;;3.10;;
79330;SDS011;68797;49.782;19.054;2023-03-29T15:08:31;5.53;;;3.13;;
79330;SDS011;68797;49.782;19.054;2023-03-29T15:10:59;8.77;;;4.00;;
79330;SDS011;68797;49.782;19.054;2023-03-29T15:15:56;5.50;;;2.90;;
79330;SDS011;68797;49.782;19.054;2023-03-29T15:18:32;8.30;;;3.58;;
79330;SDS011;68797;49.782;19.054;2023-03-29T15:21:09;10.25;;;4.85;;
79330;SDS011;68797;49.782;19.054;2023-03-29T15:23:53;9.35;;;4.15;;
79330;SDS011;68797;49.782;19.054;2023-03-29T15:26:43;8.93;;;3.50;;
79330;SDS011;68797;49.782;19.054;2023-03-29T15:29:11;5.68;;;3.00;;
79330;SDS011;68797;49.782;19.054;2023-03-29T15:31:52;7.13;;;3.30;;
79330;SDS011;68797;49.782;19.054;2023-03-29T15:34:25;7.32;;;3.63;;
79330;SDS011;68797;49.782;19.054;2023-03-29T15:36:56;5.53;;;3.47;;
79330;SDS011;68797;49.782;19.054;2023-03-29T15:39:24;16.17;;;6.32;;
79330;SDS011;68797;49.782;19.054;2023-03-29T15:44:31;5.93;;;2.70;;
79330;SDS011;68797;49.782;19.054;2023-03-29T15:47:01;8.68;;;2.80;;
79330;SDS011;68797;49.782;19.054;2023-03-29T15:49:28;4.78;;;2.80;;
79330;SDS011;68797;49.782;19.054;2023-03-29T15:51:55;5.05;;;2.72;;
79330;SDS011;68797;49.782;19.054;2023-03-29T15:54:23;6.70;;;3.97;;
79330;SDS011;68797;49.782;19.054;2023-03-29T15:56:52;8.07;;;3.75;;
79330;SDS011;68797;49.782;19.054;2023-03-29T15:59:23;6.43;;;3.67;;
79330;SDS011;68797;49.782;19.054;2023-03-29T16:01:55;9.05;;;4.32;;
79330;SDS011;68797;49.782;19.054;2023-03-29T16:04:27;24.05;;;10.13;;
79330;SDS011;68797;49.782;19.054;2023-03-29T16:07:09;31.80;;;9.70;;
79330;SDS011;68797;49.782;19.054;2023-03-29T16:10:08;23.40;;;8.98;;
79330;SDS011;68797;49.782;19.054;2023-03-29T16:12:37;31.80;;;14.48;;
79330;SDS011;68797;49.782;19.054;2023-03-29T16:15:11;36.55;;;14.27;;
79330;SDS011;68797;49.782;19.054;2023-03-29T16:18:03;22.13;;;10.05;;
79330;SDS011;68797;49.782;19.054;2023-03-29T16:20:29;35.67;;;15.35;;
79330;SDS011;68797;49.782;19.054;2023-03-29T16:23:01;20.40;;;9.93;;
79330;SDS011;68797;49.782;19.054;2023-03-29T16:25:35;9.07;;;4.70;;
79330;SDS011;68797;49.782;19.054;2023-03-29T16:28:03;12.50;;;5.00;;
79330;SDS011;68797;49.782;19.054;2023-03-29T16:30:33;11.68;;;5.93;;
79330;SDS011;68797;49.782;19.054;2023-03-29T16:33:04;7.13;;;4.28;;
79330;SDS011;68797;49.782;19.054;2023-03-29T16:35:35;8.77;;;4.25;;
79330;SDS011;68797;49.782;19.054;2023-03-29T16:38:08;14.05;;;4.45;;
79330;SDS011;68797;49.782;19.054;2023-03-29T16:45:30;29.48;;;11.82;;
79330;SDS011;68797;49.782;19.054;2023-03-29T16:47:59;15.75;;;7.00;;
79330;SDS011;68797;49.782;19.054;2023-03-29T16:50:28;10.02;;;5.10;;
79330;SDS011;68797;49.782;19.054;2023-03-29T16:52:58;6.43;;;3.80;;
79330;SDS011;68797;49.782;19.054;2023-03-29T16:55:26;5.30;;;3.08;;
79330;SDS011;68797;49.782;19.054;2023-03-29T16:57:54;6.10;;;3.42;;
79330;SDS011;68797;49.782;19.054;2023-03-29T17:00:22;6.32;;;3.10;;
79330;SDS011;68797;49.782;19.054;2023-03-29T17:02:49;4.35;;;2.80;;
79330;SDS011;68797;49.782;19.054;2023-03-29T17:05:18;10.30;;;3.78;;
79330;SDS011;68797;49.782;19.054;2023-03-29T17:07:45;7.25;;;3.65;;
79330;SDS011;68797;49.782;19.054;2023-03-29T17:10:17;5.30;;;3.25;;
79330;SDS011;68797;49.782;19.054;2023-03-29T17:12:44;6.00;;;3.25;;
79330;SDS011;68797;49.782;19.054;2023-03-29T17:15:11;7.57;;;3.90;;
79330;SDS011;68797;49.782;19.054;2023-03-29T17:17:38;12.68;;;3.60;;
79330;SDS011;68797;49.782;19.054;2023-03-29T17:20:05;5.07;;;3.10;;
79330;SDS011;68797;49.782;19.054;2023-03-29T17:22:39;6.68;;;3.65;;
79330;SDS011;68797;49.782;19.054;2023-03-29T17:27:37;6.60;;;3.33;;
79330;SDS011;68797;49.782;19.054;2023-03-29T17:30:05;5.32;;;3.08;;
79330;SDS011;68797;49.782;19.054;2023-03-29T17:35:13;5.88;;;3.63;;
79330;SDS011;68797;49.782;19.054;2023-03-29T17:40:08;12.18;;;3.90;;
79330;SDS011;68797;49.782;19.054;2023-03-29T17:42:44;6.93;;;4.03;;
79330;SDS011;68797;49.782;19.054;2023-03-29T17:45:14;7.30;;;3.28;;
79330;SDS011;68797;49.782;19.054;2023-03-29T17:47:43;7.63;;;4.40;;
79330;SDS011;68797;49.782;19.054;2023-03-29T17:50:19;10.48;;;3.97;;
79330;SDS011;68797;49.782;19.054;2023-03-29T17:52:47;7.57;;;4.18;;